createdAt,value
2019-02-05T00:01:40.076Z,20.60
2019-02-05T00:04:09.982Z,17.13
2019-02-05T00:06:40.530Z,20.93
2019-02-05T00:09:11.655Z,17.80
2019-02-05T00:11:41.748Z,18.23
2019-02-05T00:14:11.045Z,17.90
2019-02-05T00:16:40.680Z,17.77
2019-02-05T00:19:09.952Z,17.77
2019-02-05T00:21:39.217Z,19.47
2019-02-05T00:24:10.472Z,18.70
2019-02-05T00:26:39.997Z,15.80
2019-02-05T00:29:09.270Z,20.13
2019-02-05T00:31:38.919Z,18.97
2019-02-05T00:34:10.297Z,18.20
2019-02-05T00:36:39.615Z,17.17
2019-02-05T00:39:09.665Z,18.00
2019-02-05T00:41:38.930Z,17.90
2019-02-05T00:44:08.208Z,20.73
2019-02-05T00:46:37.484Z,20.70
2019-02-05T00:49:06.749Z,17.17
2019-02-05T00:51:36.062Z,19.70
2019-02-05T00:54:06.035Z,19.40
2019-02-05T00:56:35.289Z,15.50
2019-02-05T00:59:04.814Z,22.33
2019-02-05T01:01:34.079Z,22.17
2019-02-05T01:04:03.586Z,21.17
2019-02-05T01:06:32.847Z,21.33
2019-02-05T01:09:02.158Z,21.27
2019-02-05T01:11:31.447Z,23.70
2019-02-05T01:14:01.181Z,23.97
2019-02-05T01:16:30.509Z,24.23
2019-02-05T01:18:59.771Z,22.20
2019-02-05T01:21:29.022Z,22.30
2019-02-05T01:23:58.321Z,19.63
2019-02-05T01:26:29.496Z,23.87
2019-02-05T01:28:58.584Z,20.97
2019-02-05T01:31:27.960Z,23.67
2019-02-05T01:33:57.219Z,22.40
2019-02-05T01:36:26.519Z,25.67
2019-02-05T01:38:55.832Z,25.07
2019-02-05T01:41:25.213Z,24.77
2019-02-05T01:43:54.780Z,24.53
2019-02-05T01:46:24.033Z,25.03
2019-02-05T01:48:53.297Z,24.70
2019-02-05T01:51:22.598Z,28.07
2019-02-05T01:53:51.882Z,29.00
2019-02-05T01:56:21.193Z,24.73
2019-02-05T01:58:50.622Z,29.43
2019-02-05T02:01:19.898Z,28.27
2019-02-05T02:03:49.279Z,26.27
2019-02-05T02:06:18.538Z,27.67
2019-02-05T02:08:47.818Z,29.73
2019-02-05T02:11:17.130Z,28.87
2019-02-05T02:13:46.693Z,27.83
2019-02-05T02:16:15.956Z,29.73
2019-02-05T02:18:45.259Z,30.20
2019-02-05T02:21:16.340Z,30.93
2019-02-05T02:23:45.610Z,32.10
2019-02-05T02:26:14.948Z,30.43
2019-02-05T02:28:44.393Z,26.70
2019-02-05T02:31:15.483Z,32.60
2019-02-05T02:33:44.953Z,29.53
2019-02-05T02:36:14.248Z,29.10
2019-02-05T02:38:43.509Z,29.50
2019-02-05T02:41:12.865Z,30.37
2019-02-05T02:43:43.193Z,33.03
2019-02-05T02:46:12.483Z,33.23
2019-02-05T02:48:41.806Z,29.60
2019-02-05T02:51:11.060Z,30.97
2019-02-05T02:53:40.351Z,33.37
2019-02-05T02:56:09.608Z,30.93
2019-02-05T02:58:39.001Z,30.73
2019-02-05T03:01:08.263Z,33.90
2019-02-05T03:03:37.562Z,34.03
2019-02-05T03:06:06.837Z,31.70
2019-02-05T03:08:36.103Z,34.33
2019-02-05T03:11:06.026Z,34.67
2019-02-05T03:13:35.663Z,33.53
2019-02-05T03:16:05.543Z,35.63
2019-02-05T03:18:34.795Z,42.30
2019-02-05T03:21:04.091Z,39.13
2019-02-05T03:23:33.377Z,36.33
2019-02-05T03:26:02.637Z,40.77
2019-02-05T03:28:31.924Z,41.43
2019-02-05T03:31:01.574Z,49.30
2019-02-05T03:33:30.961Z,41.50
2019-02-05T03:36:00.216Z,44.23
2019-02-05T03:38:29.490Z,59.50
2019-02-05T03:41:07.683Z,59.00
2019-02-05T03:43:41.105Z,47.23
2019-02-05T03:46:12.425Z,43.13
2019-02-05T03:48:43.029Z,53.37
2019-02-05T03:51:41.421Z,49.53
2019-02-05T03:54:25.269Z,46.40
2019-02-05T03:57:30.717Z,42.80
2019-02-05T04:00:34.295Z,76.90
2019-02-05T04:03:53.396Z,41.93
2019-02-05T04:06:51.531Z,44.90
2019-02-05T04:09:43.154Z,40.47
2019-02-05T04:12:39.000Z,66.70
2019-02-05T04:15:27.754Z,38.80
2019-02-05T04:18:39.776Z,37.23
2019-02-05T04:21:39.464Z,37.80
2019-02-05T04:24:51.333Z,43.17
2019-02-05T04:27:51.557Z,124.37
2019-02-05T04:31:11.115Z,40.70
2019-02-05T04:34:42.409Z,40.10
2019-02-05T04:38:00.331Z,58.63
2019-02-05T04:41:15.606Z,44.23
2019-02-05T04:44:13.581Z,42.20
2019-02-05T04:47:07.804Z,40.47
2019-02-05T04:50:02.533Z,46.83
2019-02-05T04:53:12.000Z,44.53
2019-02-05T04:56:17.022Z,42.00
2019-02-05T04:59:27.465Z,45.93
2019-02-05T05:02:34.074Z,49.17
2019-02-05T05:05:37.295Z,46.47
2019-02-05T05:08:43.612Z,45.87
2019-02-05T05:11:13.262Z,50.60
2019-02-05T05:13:42.578Z,41.90
2019-02-05T05:16:11.833Z,41.50
2019-02-05T05:18:41.123Z,44.13
2019-02-05T05:21:10.576Z,46.43
2019-02-05T05:23:40.031Z,40.47
2019-02-05T05:26:09.648Z,46.17
2019-02-05T05:28:43.187Z,46.30
2019-02-05T05:31:12.567Z,50.03
2019-02-05T05:33:41.829Z,50.70
2019-02-05T05:36:11.158Z,51.60
2019-02-05T05:38:40.426Z,41.23
2019-02-05T05:41:09.719Z,47.40
2019-02-05T05:43:39.254Z,47.03
2019-02-05T05:46:08.511Z,49.50
2019-02-05T05:48:37.798Z,51.93
2019-02-05T05:51:08.066Z,44.47
2019-02-05T05:53:37.362Z,55.43
2019-02-05T05:56:06.634Z,48.07
2019-02-05T05:58:36.300Z,46.17
2019-02-05T06:01:07.726Z,53.50
2019-02-05T06:03:39.377Z,45.87
2019-02-05T06:06:09.330Z,48.70
2019-02-05T06:08:39.330Z,49.37
2019-02-05T06:11:10.193Z,48.30
2019-02-05T06:13:41.305Z,48.90
2019-02-05T06:16:11.173Z,49.40
2019-02-05T06:18:40.604Z,49.03
2019-02-05T06:21:09.899Z,51.00
2019-02-05T06:23:39.477Z,53.27
2019-02-05T06:26:09.242Z,51.30
2019-02-05T06:28:39.022Z,52.83
2019-02-05T06:31:08.644Z,49.70
2019-02-05T06:33:38.253Z,49.27
2019-02-05T06:36:07.839Z,50.87
2019-02-05T06:38:37.493Z,55.73
2019-02-05T06:41:08.593Z,49.97
2019-02-05T06:43:38.846Z,54.63
2019-02-05T06:46:08.394Z,49.83
2019-02-05T06:48:38.073Z,49.07
2019-02-05T06:51:07.635Z,49.93
2019-02-05T06:53:36.890Z,50.97
2019-02-05T06:56:06.468Z,51.13
2019-02-05T06:58:45.911Z,48.73
2019-02-05T07:01:06.728Z,49.37
2019-02-05T07:03:35.998Z,54.63
2019-02-05T07:06:05.303Z,55.53
2019-02-05T07:08:34.564Z,52.03
2019-02-05T07:11:04.141Z,46.70
2019-02-05T07:13:33.409Z,47.77
2019-02-05T07:16:02.853Z,46.10
2019-02-05T07:18:32.135Z,47.63
2019-02-05T07:21:01.424Z,49.97
2019-02-05T07:23:30.705Z,55.03
2019-02-05T07:25:59.977Z,54.00
2019-02-05T07:28:29.358Z,52.63
2019-02-05T07:30:59.027Z,50.20
2019-02-05T07:33:28.305Z,54.10
2019-02-05T07:35:57.595Z,51.73
2019-02-05T07:38:26.876Z,46.20
2019-02-05T07:40:56.166Z,46.50
2019-02-05T07:43:25.425Z,47.30
2019-02-05T07:45:54.709Z,53.63
2019-02-05T07:48:24.027Z,46.27
2019-02-05T07:50:53.429Z,50.93
2019-02-05T07:53:23.706Z,45.53
2019-02-05T07:55:53.039Z,46.37
2019-02-05T07:58:22.324Z,37.37
2019-02-05T08:00:51.601Z,44.17
2019-02-05T08:03:20.889Z,43.43
2019-02-05T08:05:50.543Z,42.63
2019-02-05T08:08:19.832Z,39.27
2019-02-05T08:10:49.199Z,43.40
2019-02-05T08:13:18.509Z,38.70
2019-02-05T08:15:47.769Z,38.50
2019-02-05T08:18:17.070Z,36.17
2019-02-05T08:20:46.367Z,34.70
2019-02-05T08:23:17.174Z,42.90
2019-02-05T08:25:46.760Z,38.03
2019-02-05T08:28:16.015Z,40.83
2019-02-05T08:30:47.527Z,40.67
2019-02-05T08:33:16.816Z,41.57
2019-02-05T08:35:46.145Z,42.60
2019-02-05T08:38:15.818Z,39.77
2019-02-05T08:40:45.411Z,41.70
2019-02-05T08:43:14.676Z,39.13
2019-02-05T08:45:55.954Z,39.83
2019-02-05T08:48:15.228Z,42.87
2019-02-05T08:50:44.607Z,37.60
2019-02-05T08:53:13.930Z,42.87
2019-02-05T08:55:43.193Z,47.83
2019-02-05T08:58:13.131Z,39.87
2019-02-05T09:00:42.636Z,41.13
2019-02-05T09:03:12.288Z,45.03
2019-02-05T09:05:41.890Z,47.30
2019-02-05T09:08:11.516Z,46.50
2019-02-05T09:10:41.204Z,45.30
2019-02-05T09:13:10.867Z,43.70
2019-02-05T09:15:40.136Z,46.97
2019-02-05T09:18:10.533Z,45.07
2019-02-05T09:20:39.796Z,46.90
2019-02-05T09:23:09.054Z,48.03
2019-02-05T09:25:38.331Z,46.43
2019-02-05T09:28:07.584Z,45.77
2019-02-05T09:30:37.181Z,45.43
2019-02-05T09:33:09.753Z,46.83
2019-02-05T09:35:39.103Z,43.23
2019-02-05T09:38:08.389Z,47.63
2019-02-05T09:40:37.873Z,46.63
2019-02-05T09:43:07.437Z,41.23
2019-02-05T09:45:37.139Z,38.83
2019-02-05T09:48:06.439Z,39.60
2019-02-05T09:50:44.228Z,43.33
2019-02-05T09:53:06.741Z,42.00
2019-02-05T09:55:36.313Z,40.60
2019-02-05T09:58:05.825Z,38.27
2019-02-05T10:00:37.795Z,40.87
2019-02-05T10:03:08.409Z,38.67
2019-02-05T10:05:37.844Z,42.27
2019-02-05T10:08:07.299Z,42.03
2019-02-05T10:10:36.600Z,44.73
2019-02-05T10:13:06.998Z,41.10
2019-02-05T10:15:37.823Z,44.47
2019-02-05T10:18:09.008Z,43.03
2019-02-05T10:20:38.274Z,42.83
2019-02-05T10:23:08.877Z,39.17
2019-02-05T10:25:38.897Z,40.63
2019-02-05T10:28:08.788Z,39.87
2019-02-05T10:30:40.831Z,38.37
2019-02-05T10:33:10.724Z,38.20
2019-02-05T10:35:40.720Z,39.50
2019-02-05T10:38:10.410Z,44.33
2019-02-05T10:40:39.751Z,40.90
2019-02-05T10:43:09.444Z,39.20
2019-02-05T10:45:38.907Z,34.57
2019-02-05T10:48:10.085Z,35.20
2019-02-05T10:50:39.741Z,34.47
2019-02-05T10:53:09.008Z,34.53
2019-02-05T10:55:38.317Z,38.67
2019-02-05T10:58:08.806Z,37.27
2019-02-05T11:00:39.093Z,40.33
2019-02-05T11:03:09.238Z,34.33
2019-02-05T11:05:38.723Z,39.53
2019-02-05T11:08:08.680Z,37.67
2019-02-05T11:10:38.182Z,38.53
2019-02-05T11:13:08.113Z,36.03
2019-02-05T11:15:37.587Z,36.60
2019-02-05T11:18:09.708Z,32.27
2019-02-05T11:20:38.996Z,30.77
2019-02-05T11:23:08.696Z,33.63
2019-02-05T11:25:38.998Z,33.53
2019-02-05T11:28:08.268Z,32.93
2019-02-05T11:30:42.772Z,32.13
2019-02-05T11:33:12.713Z,36.13
2019-02-05T11:35:42.188Z,28.57
2019-02-05T11:38:13.230Z,34.00
2019-02-05T11:40:42.736Z,30.63
2019-02-05T11:43:12.031Z,31.47
2019-02-05T11:45:41.355Z,33.77
2019-02-05T11:48:14.970Z,30.73
2019-02-05T11:50:44.288Z,33.73
2019-02-05T11:53:13.552Z,33.73
2019-02-05T11:55:42.851Z,36.20
2019-02-05T11:58:12.803Z,35.73
2019-02-05T12:01:02.621Z,34.27
2019-02-05T12:03:31.925Z,33.57
2019-02-05T12:06:01.181Z,36.80
2019-02-05T12:08:30.460Z,30.90
2019-02-05T12:10:59.736Z,32.23
2019-02-05T12:13:29.010Z,34.93
2019-02-05T12:15:58.282Z,31.50
2019-02-05T12:18:27.750Z,33.33
2019-02-05T12:20:57.002Z,32.77
2019-02-05T12:23:26.571Z,30.93
2019-02-05T12:25:55.845Z,32.23
2019-02-05T12:28:25.110Z,32.40
2019-02-05T12:30:54.405Z,31.23
2019-02-05T12:33:23.664Z,31.93
2019-02-05T12:35:52.949Z,38.30
2019-02-05T12:38:22.243Z,32.10
2019-02-05T12:40:51.535Z,38.90
2019-02-05T12:43:20.843Z,29.80
2019-02-05T12:45:50.098Z,29.03
2019-02-05T12:48:19.373Z,31.33
2019-02-05T12:50:48.968Z,29.03
2019-02-05T12:53:18.253Z,32.53
2019-02-05T12:55:47.509Z,31.40
2019-02-05T12:58:16.788Z,29.83
2019-02-05T13:00:56.827Z,30.40
2019-02-05T13:03:19.595Z,29.73
2019-02-05T13:05:49.303Z,31.10
2019-02-05T13:08:18.657Z,31.77
2019-02-05T13:10:50.385Z,30.97
2019-02-05T13:13:20.293Z,26.80
2019-02-05T13:15:49.585Z,35.60
2019-02-05T13:18:18.832Z,35.77
2019-02-05T13:20:48.196Z,34.07
2019-02-05T13:23:17.464Z,33.97
2019-02-05T13:25:46.802Z,31.57
2019-02-05T13:28:16.210Z,30.43
2019-02-05T13:30:46.923Z,32.37
2019-02-05T13:33:17.589Z,29.73
2019-02-05T13:35:47.075Z,30.70
2019-02-05T13:38:16.362Z,36.20
2019-02-05T13:40:45.633Z,33.30
2019-02-05T13:43:15.163Z,28.40
2019-02-05T13:45:44.981Z,28.63
2019-02-05T13:48:14.473Z,29.43
2019-02-05T13:50:43.769Z,29.00
2019-02-05T13:53:13.033Z,36.10
2019-02-05T13:55:44.633Z,30.70
2019-02-05T13:58:15.413Z,30.70
2019-02-05T14:00:50.024Z,31.87
2019-02-05T14:03:19.419Z,28.90
2019-02-05T14:05:48.911Z,33.17
2019-02-05T14:08:22.628Z,31.57
2019-02-05T14:10:52.053Z,30.73
2019-02-05T14:13:23.164Z,27.27
2019-02-05T14:15:53.901Z,31.97
2019-02-05T14:18:23.374Z,36.53
2019-02-05T14:20:52.767Z,28.90
2019-02-05T14:23:22.304Z,33.77
2019-02-05T14:25:51.588Z,33.07
2019-02-05T14:28:20.866Z,34.60
2019-02-05T14:30:55.353Z,39.37
2019-02-05T14:33:26.065Z,36.57
2019-02-05T14:35:55.368Z,32.10
2019-02-05T14:38:26.287Z,37.93
2019-02-05T14:40:55.542Z,33.60
2019-02-05T14:43:25.172Z,33.10
2019-02-05T14:45:54.474Z,33.53
2019-02-05T14:48:23.736Z,33.07
2019-02-05T14:50:53.025Z,35.20
2019-02-05T14:53:22.296Z,35.83
2019-02-05T14:55:51.578Z,36.70
2019-02-05T14:58:22.552Z,37.23
2019-02-05T15:00:51.831Z,36.97
2019-02-05T15:03:21.124Z,37.50
2019-02-05T15:05:50.432Z,38.20
2019-02-05T15:08:20.267Z,36.83
2019-02-05T15:10:49.558Z,39.87
2019-02-05T15:13:18.910Z,40.57
2019-02-05T15:15:48.219Z,34.50
2019-02-05T15:18:20.017Z,36.73
2019-02-05T15:20:50.577Z,36.63
2019-02-05T15:23:20.527Z,39.73
2019-02-05T15:25:49.817Z,36.20
2019-02-05T15:28:19.136Z,35.37
2019-02-05T15:30:48.412Z,40.83
2019-02-05T15:33:41.179Z,38.40
2019-02-05T15:36:23.507Z,40.67
2019-02-05T15:38:52.812Z,40.50
2019-02-05T15:41:22.167Z,38.93
2019-02-05T15:43:51.431Z,39.10
2019-02-05T15:46:20.735Z,41.20
2019-02-05T15:48:50.608Z,37.20
2019-02-05T15:51:19.906Z,39.87
2019-02-05T15:53:49.224Z,39.67
2019-02-05T15:56:18.629Z,40.37
2019-02-05T15:58:47.947Z,42.23
2019-02-05T16:01:17.209Z,39.63
2019-02-05T16:03:46.974Z,43.87
2019-02-05T16:06:16.481Z,38.93
2019-02-05T16:08:45.820Z,45.63
2019-02-05T16:11:15.126Z,45.13
2019-02-05T16:13:44.495Z,44.63
2019-02-05T16:16:13.862Z,45.43
2019-02-05T16:18:43.653Z,44.83
2019-02-05T16:21:13.819Z,45.30
2019-02-05T16:23:43.181Z,41.20
2019-02-05T16:26:12.467Z,45.77
2019-02-05T16:28:41.791Z,45.07
2019-02-05T16:31:11.049Z,45.40
2019-02-05T16:33:41.994Z,48.00
2019-02-05T16:36:11.291Z,48.23
2019-02-05T16:38:40.561Z,45.90
2019-02-05T16:41:09.838Z,47.70
2019-02-05T16:43:39.307Z,45.93
2019-02-05T16:46:08.639Z,41.27
2019-02-05T16:48:39.406Z,45.43
2019-02-05T16:51:08.976Z,43.70
2019-02-05T16:53:38.274Z,46.53
2019-02-05T16:56:08.637Z,64.10
2019-02-05T16:58:38.669Z,40.20
2019-02-05T17:01:08.188Z,43.63
2019-02-05T17:03:39.457Z,46.47
2019-02-05T17:06:10.037Z,39.17
2019-02-05T17:08:39.294Z,45.40
2019-02-05T17:11:08.682Z,45.67
2019-02-05T17:13:37.925Z,45.57
2019-02-05T17:16:07.264Z,41.10
2019-02-05T17:18:36.678Z,45.43
2019-02-05T17:21:06.171Z,43.87
2019-02-05T17:23:35.459Z,45.73
2019-02-05T17:26:05.024Z,44.40
2019-02-05T17:28:34.550Z,49.57
2019-02-05T17:31:03.875Z,47.33
2019-02-05T17:33:33.213Z,46.07
2019-02-05T17:36:53.966Z,49.80
2019-02-05T17:39:23.326Z,42.13
2019-02-05T17:41:52.601Z,49.60
2019-02-05T17:47:13.321Z,51.73
2019-02-05T17:49:52.595Z,45.47
2019-02-05T17:52:22.457Z,46.10
2019-02-05T17:54:52.956Z,47.73
2019-02-05T17:57:26.240Z,47.17
2019-02-05T17:59:57.037Z,46.13
2019-02-05T18:02:26.372Z,50.90
2019-02-05T18:04:55.643Z,54.17
2019-02-05T18:07:27.247Z,52.87
2019-02-05T18:09:58.232Z,51.37
2019-02-05T18:12:27.778Z,55.30
2019-02-05T18:14:57.047Z,52.50
2019-02-05T18:17:26.312Z,50.47
2019-02-05T18:19:55.598Z,47.13
2019-02-05T18:22:24.947Z,45.70
2019-02-05T18:24:54.295Z,51.87
2019-02-05T18:27:25.471Z,51.43
2019-02-05T18:29:55.686Z,50.23
2019-02-05T18:32:27.147Z,49.60
2019-02-05T18:34:57.948Z,52.63
2019-02-05T18:37:29.201Z,53.20
2019-02-05T18:40:00.734Z,54.20
2019-02-05T18:42:29.759Z,51.40
2019-02-05T18:44:59.121Z,55.27
2019-02-05T18:47:30.125Z,56.27
2019-02-05T18:49:59.478Z,55.57
2019-02-05T18:52:28.812Z,53.00
2019-02-05T18:54:58.486Z,50.73
2019-02-05T18:57:27.792Z,57.20
2019-02-05T18:59:58.333Z,54.30
2019-02-05T19:02:27.685Z,56.20
2019-02-05T19:04:57.038Z,51.10
2019-02-05T19:07:26.758Z,52.40
2019-02-05T19:09:55.909Z,52.67
2019-02-05T19:12:26.489Z,58.17
2019-02-05T19:14:56.076Z,53.57
2019-02-05T19:17:27.637Z,52.97
2019-02-05T19:19:57.347Z,53.60
2019-02-05T19:22:26.967Z,51.90
2019-02-05T19:25:02.483Z,59.03
2019-02-05T19:27:31.798Z,58.77
2019-02-05T19:30:01.091Z,57.57
2019-02-05T19:32:30.648Z,53.90
2019-02-05T19:35:01.085Z,55.13
2019-02-05T19:37:30.391Z,53.03
2019-02-05T19:40:00.852Z,60.57
2019-02-05T19:42:30.171Z,57.87
2019-02-05T19:45:18.423Z,53.10
2019-02-05T19:47:47.805Z,59.00
2019-02-05T19:50:17.100Z,61.47
2019-02-05T19:52:47.096Z,54.83
2019-02-05T19:55:16.937Z,55.97
2019-02-05T19:57:46.441Z,65.27
2019-02-05T20:00:17.932Z,60.73
2019-02-05T20:02:47.206Z,62.23
2019-02-05T20:05:20.050Z,58.73
2019-02-05T20:07:50.166Z,57.63
2019-02-05T20:10:20.616Z,58.53
2019-02-05T20:12:49.953Z,58.60
2019-02-05T20:15:20.612Z,57.57
2019-02-05T20:17:51.317Z,58.97
2019-02-05T20:20:21.980Z,57.10
2019-02-05T20:22:51.783Z,59.90
2019-02-05T20:25:21.536Z,60.03
2019-02-05T20:27:51.306Z,59.30
2019-02-05T20:30:21.211Z,57.27
2019-02-05T20:32:51.480Z,58.80
2019-02-05T20:35:21.083Z,60.67
2019-02-05T20:37:52.007Z,57.30
2019-02-05T20:40:21.379Z,63.87
2019-02-05T20:42:50.669Z,59.10
2019-02-05T20:45:20.272Z,57.87
2019-02-05T20:47:50.091Z,57.90
2019-02-05T20:50:20.722Z,62.73
2019-02-05T20:52:50.105Z,54.87
2019-02-05T20:55:19.396Z,62.30
2019-02-05T20:57:48.694Z,54.93
2019-02-05T21:00:22.011Z,59.00
2019-02-05T21:02:51.411Z,59.23
2019-02-05T21:05:20.679Z,60.33
2019-02-05T21:07:50.211Z,62.03
2019-02-05T21:10:22.021Z,63.23
2019-02-05T21:12:51.438Z,66.27
2019-02-05T21:15:21.958Z,62.47
2019-02-05T21:17:51.539Z,58.63
2019-02-05T21:20:29.778Z,56.93
2019-02-05T21:22:56.597Z,64.00
2019-02-05T21:25:25.001Z,63.40
2019-02-05T21:27:54.637Z,61.80
2019-02-05T21:30:24.243Z,62.93
2019-02-05T21:32:54.003Z,64.43
2019-02-05T21:35:23.429Z,65.77
2019-02-05T21:37:53.036Z,65.97
2019-02-05T21:40:22.434Z,60.07
2019-02-05T21:42:52.027Z,64.87
2019-02-05T21:45:23.169Z,63.83
2019-02-05T21:47:53.463Z,64.83
2019-02-05T21:50:23.128Z,63.53
2019-02-05T21:52:53.015Z,59.63
2019-02-05T21:55:24.318Z,61.57
2019-02-05T21:57:53.569Z,58.27
2019-02-05T22:00:27.875Z,64.83
2019-02-05T22:02:58.215Z,73.80
2019-02-05T22:05:28.706Z,59.17
2019-02-05T22:07:58.197Z,61.63
2019-02-05T22:10:27.738Z,66.23
2019-02-05T22:12:57.044Z,63.77
2019-02-05T22:15:26.734Z,59.93
2019-02-05T22:17:56.551Z,63.17
2019-02-05T22:20:26.793Z,57.43
2019-02-05T22:22:57.124Z,64.37
2019-02-05T22:25:28.358Z,68.00
2019-02-05T22:27:57.953Z,66.63
2019-02-05T22:30:31.789Z,66.17
2019-02-05T22:33:01.126Z,64.13
2019-02-05T22:35:30.703Z,61.53
2019-02-05T22:38:00.052Z,69.77
2019-02-05T22:40:29.669Z,68.30
2019-02-05T22:43:00.323Z,66.30
2019-02-05T22:45:32.136Z,66.83
2019-02-05T22:48:02.726Z,64.17
2019-02-05T22:50:34.163Z,68.40
2019-02-05T22:53:04.239Z,67.53
2019-02-05T22:55:33.737Z,67.97
2019-02-05T22:58:03.336Z,75.50
2019-02-05T23:00:58.512Z,69.40
2019-02-05T23:03:43.614Z,68.97
2019-02-05T23:06:37.848Z,70.53
2019-02-05T23:09:19.833Z,59.40
2019-02-05T23:12:38.553Z,65.67
2019-02-05T23:15:19.088Z,61.17
2019-02-05T23:17:51.456Z,66.43
2019-02-05T23:20:23.441Z,68.93
2019-02-05T23:22:56.976Z,68.00
2019-02-05T23:25:27.387Z,66.23
2019-02-05T23:27:59.352Z,69.47
2019-02-05T23:30:30.086Z,66.13
2019-02-05T23:32:59.967Z,70.27
2019-02-05T23:35:32.590Z,66.63
2019-02-05T23:38:00.736Z,67.93
2019-02-05T23:40:30.020Z,75.97
2019-02-05T23:42:59.289Z,65.97
2019-02-05T23:45:28.587Z,66.17
2019-02-05T23:47:57.883Z,65.80
2019-02-05T23:50:27.436Z,72.13
2019-02-05T23:52:56.707Z,69.53
2019-02-05T23:55:26.001Z,68.87
2019-02-05T23:57:55.258Z,74.03
